createdAt,value
2022-08-20T00:00:17.428Z,18.38
2022-08-20T00:05:25.762Z,18.32
2022-08-20T00:11:09.052Z,18.22
2022-08-20T00:16:17.431Z,18.15
2022-08-20T00:21:25.710Z,18.09
2022-08-20T00:26:33.797Z,18.12
2022-08-20T00:31:41.895Z,18.07
2022-08-20T00:36:49.526Z,18.03
2022-08-20T00:41:57.471Z,18.02
2022-08-20T00:47:05.672Z,18.04
2022-08-20T00:52:13.017Z,18.03
2022-08-20T00:57:21.151Z,18.02
2022-08-20T01:02:29.929Z,18.06
2022-08-20T01:07:38.093Z,18.14
2022-08-20T01:12:45.093Z,18.15
2022-08-20T01:17:53.450Z,18.14
2022-08-20T01:23:01.742Z,18.09
2022-08-20T01:28:10.553Z,18.0
2022-08-20T01:33:18.516Z,17.96
2022-08-20T01:38:26.327Z,18.17
2022-08-20T01:43:33.369Z,18.2
2022-08-20T01:48:40.562Z,18.18
2022-08-20T01:53:48.354Z,18.04
2022-08-20T01:58:54.967Z,17.96
2022-08-20T02:04:03.923Z,17.97
2022-08-20T02:09:11.261Z,17.83
2022-08-20T02:14:19.165Z,17.69
2022-08-20T02:20:07.282Z,17.54
2022-08-20T02:25:14.176Z,17.32
2022-08-20T02:30:21.658Z,17.34
2022-08-20T02:35:29.502Z,17.41
2022-08-20T02:40:39.144Z,17.51
2022-08-20T02:45:46.719Z,17.62
2022-08-20T02:50:54.296Z,17.6
2022-08-20T02:56:01.771Z,17.54
2022-08-20T03:01:09.310Z,17.46
2022-08-20T03:06:16.540Z,17.38
2022-08-20T03:11:34.121Z,17.34
2022-08-20T03:16:42.320Z,17.33
2022-08-20T03:21:49.095Z,17.3
2022-08-20T03:26:56.877Z,17.3
2022-08-20T03:32:04.056Z,17.25
2022-08-20T03:37:11.899Z,17.17
2022-08-20T03:42:20.287Z,17.09
2022-08-20T03:47:27.610Z,17.11
2022-08-20T03:52:35.442Z,16.94
2022-08-20T03:57:43.762Z,16.85
2022-08-20T04:02:51.668Z,16.67
2022-08-20T04:07:58.934Z,16.33
2022-08-20T04:13:07.282Z,16.26
2022-08-20T04:18:14.619Z,16.3
2022-08-20T04:23:22.978Z,16.33
2022-08-20T04:28:31.433Z,16.33
2022-08-20T04:33:38.774Z,16.4
2022-08-20T04:38:46.612Z,16.51
2022-08-20T04:43:54.785Z,16.54
2022-08-20T04:49:01.661Z,17.14
2022-08-20T04:54:09.500Z,17.52
2022-08-20T04:59:17.942Z,17.4
2022-08-20T05:04:25.345Z,17.42
2022-08-20T05:09:33.606Z,17.38
2022-08-20T05:14:42.550Z,17.47
2022-08-20T05:27:39.453Z,25.26
2022-08-20T05:36:12.672Z,29.88
2022-08-20T05:41:17.287Z,30.07
2022-08-20T05:46:26.009Z,29.61
2022-08-20T05:51:39.032Z,30.92
2022-08-20T05:56:45.987Z,31.36
2022-08-20T06:01:54.752Z,30.84
2022-08-20T06:07:02.780Z,31.46
2022-08-20T06:12:10.422Z,31.1
2022-08-20T06:17:17.013Z,28.12
2022-08-20T06:22:26.019Z,28.26
2022-08-20T06:27:32.732Z,26.51
2022-08-20T06:32:39.929Z,25.78
2022-08-20T06:37:47.941Z,25.02
2022-08-20T06:42:55.295Z,26.52
2022-08-20T06:48:02.779Z,30.68
2022-08-20T06:53:10.618Z,31.58
2022-08-20T06:58:18.213Z,31.62
2022-08-20T07:03:26.429Z,32.52
2022-08-20T07:08:34.744Z,32.8
2022-08-20T07:13:42.649Z,33.07
2022-08-20T07:18:50.630Z,33.93
2022-08-20T07:23:58.302Z,34.5
2022-08-20T07:29:05.144Z,33.61
2022-08-20T07:34:12.095Z,33.79
2022-08-20T07:39:20.931Z,33.32
2022-08-20T07:44:27.744Z,34.22
2022-08-20T07:49:36.740Z,34.25
2022-08-20T07:54:44.201Z,33.06
2022-08-20T07:59:51.298Z,33.83
2022-08-20T08:04:58.455Z,34.38
2022-08-20T08:10:06.322Z,35.2
2022-08-20T08:15:13.520Z,34.11
2022-08-20T08:20:20.058Z,30.28
2022-08-20T08:34:01.170Z,26.58
2022-08-20T08:39:07.764Z,28.0
2022-08-20T08:44:15.926Z,28.46
2022-08-20T08:49:23.432Z,26.58
2022-08-20T08:54:32.263Z,25.93
2022-08-20T08:59:40.377Z,25.94
2022-08-20T09:04:49.367Z,26.24
2022-08-20T09:09:57.908Z,30.92
2022-08-20T09:15:05.815Z,32.4
2022-08-20T09:20:13.811Z,30.99
2022-08-20T09:25:21.102Z,28.94
2022-08-20T09:30:28.518Z,27.97
2022-08-20T09:35:36.090Z,28.47
2022-08-20T09:40:44.248Z,27.84
2022-08-20T09:45:52.956Z,26.8
2022-08-20T09:51:01.027Z,28.54
2022-08-20T09:56:09.264Z,30.08
2022-08-20T10:01:16.614Z,30.55
2022-08-20T10:06:23.668Z,29.05
2022-08-20T10:11:30.774Z,27.1
2022-08-20T10:16:38.547Z,27.69
2022-08-20T10:21:45.799Z,27.4
2022-08-20T10:26:53.260Z,26.01
2022-08-20T10:32:00.221Z,27.6
2022-08-20T10:37:07.417Z,26.86
2022-08-20T10:42:15.772Z,26.4
2022-08-20T10:47:23.130Z,26.22
2022-08-20T10:52:30.921Z,26.29
2022-08-20T10:57:38.870Z,25.48
2022-08-20T11:02:46.126Z,25.42
2022-08-20T11:07:54.012Z,25.06
2022-08-20T11:13:01.807Z,24.58
2022-08-20T11:18:10.152Z,24.4
2022-08-20T11:23:17.358Z,24.76
2022-08-20T11:28:25.312Z,25.2
2022-08-20T11:33:33.765Z,25.06
2022-08-20T11:38:40.213Z,25.08
2022-08-20T11:43:48.568Z,25.02
2022-08-20T11:48:55.753Z,25.15
2022-08-20T11:54:05.017Z,25.11
2022-08-20T11:59:13.584Z,25.4
2022-08-20T12:04:21.010Z,25.07
2022-08-20T12:09:29.692Z,24.86
2022-08-20T12:14:38.221Z,24.88
2022-08-20T12:19:44.867Z,24.76
2022-08-20T12:24:53.027Z,24.74
2022-08-20T12:30:00.179Z,24.46
2022-08-20T12:35:07.702Z,24.74
2022-08-20T12:40:18.543Z,24.67
2022-08-20T12:45:27.649Z,24.67
2022-08-20T12:50:35.098Z,24.76
2022-08-20T12:55:41.648Z,24.66
2022-08-20T13:00:49.293Z,25.17
2022-08-20T13:05:56.825Z,25.46
2022-08-20T13:11:04.503Z,25.54
2022-08-20T13:16:12.363Z,25.78
2022-08-20T13:21:21.688Z,25.96
2022-08-20T13:26:28.536Z,25.14
2022-08-20T13:31:35.890Z,24.42
2022-08-20T13:37:06.134Z,23.44
2022-08-20T13:42:15.740Z,22.88
2022-08-20T13:47:22.527Z,22.56
2022-08-20T13:52:30.857Z,22.42
2022-08-20T13:57:38.626Z,22.35
2022-08-20T14:02:46.384Z,23.08
2022-08-20T14:07:53.838Z,23.88
2022-08-20T14:13:01.178Z,24.94
2022-08-20T14:18:08.898Z,25.34
2022-08-20T14:23:16.924Z,25.28
2022-08-20T14:28:26.501Z,25.46
2022-08-20T14:33:34.296Z,25.74
2022-08-20T14:38:42.138Z,25.4
2022-08-20T14:43:48.735Z,24.93
2022-08-20T14:48:55.898Z,24.88
2022-08-20T14:54:03.848Z,24.64
2022-08-20T14:59:10.969Z,24.46
2022-08-20T15:04:18.135Z,23.84
2022-08-20T15:09:26.013Z,23.46
2022-08-20T15:14:34.242Z,23.3
2022-08-20T15:19:41.688Z,23.02
2022-08-20T15:24:49.505Z,22.9
2022-08-20T15:29:57.341Z,22.57
2022-08-20T15:35:04.575Z,22.42
2022-08-20T15:40:12.389Z,22.48
2022-08-20T15:45:19.705Z,22.43
2022-08-20T15:50:27.751Z,22.15
2022-08-20T15:55:35.808Z,22.04
2022-08-20T16:00:43.125Z,21.93
2022-08-20T16:05:50.331Z,21.79
2022-08-20T16:10:57.507Z,21.78
2022-08-20T16:16:04.911Z,21.76
2022-08-20T16:21:11.937Z,21.82
2022-08-20T16:26:57.552Z,21.82
2022-08-20T16:32:05.018Z,21.71
2022-08-20T16:37:12.138Z,21.54
2022-08-20T16:42:19.514Z,21.3
2022-08-20T16:47:27.546Z,21.08
2022-08-20T16:52:35.099Z,20.97
2022-08-20T16:57:43.227Z,20.76
2022-08-20T17:02:50.461Z,20.7
2022-08-20T17:07:57.641Z,20.56
2022-08-20T17:13:06.295Z,20.46
2022-08-20T17:18:12.760Z,20.34
2022-08-20T17:23:19.929Z,20.2
2022-08-20T17:28:27.509Z,20.08
2022-08-20T17:33:34.322Z,19.93
2022-08-20T17:38:42.205Z,19.75
2022-08-20T17:43:50.222Z,19.65
2022-08-20T17:48:57.180Z,19.58
2022-08-20T17:54:06.187Z,19.52
2022-08-20T17:59:12.934Z,19.4
2022-08-20T18:04:20.064Z,19.35
2022-08-20T18:09:28.155Z,19.31
2022-08-20T18:14:36.228Z,19.25
2022-08-20T18:19:43.090Z,19.2
2022-08-20T18:24:52.204Z,19.17
2022-08-20T18:29:59.433Z,19.17
2022-08-20T18:35:19.718Z,19.2
2022-08-20T18:35:30.067Z,19.2
2022-08-20T18:40:36.703Z,19.2
2022-08-20T18:45:44.696Z,19.15
2022-08-20T18:50:51.895Z,19.16
2022-08-20T18:56:00.797Z,19.14
2022-08-20T19:01:08.091Z,19.06
2022-08-20T19:06:23.528Z,19.07
2022-08-20T19:11:31.431Z,19.04
2022-08-20T19:16:40.568Z,19.04
2022-08-20T19:21:47.740Z,19.02
2022-08-20T19:26:55.437Z,18.98
2022-08-20T19:32:03.457Z,18.94
2022-08-20T19:37:10.970Z,18.88
2022-08-20T19:42:17.868Z,18.86
2022-08-20T19:47:26.252Z,18.81
2022-08-20T19:52:33.908Z,18.78
2022-08-20T19:57:41.491Z,18.73
2022-08-20T20:02:50.322Z,18.76
2022-08-20T20:07:58.804Z,18.75
2022-08-20T20:13:06.265Z,18.72
2022-08-20T20:18:14.478Z,18.72
2022-08-20T20:23:21.861Z,18.71
2022-08-20T20:28:29.660Z,18.73
2022-08-20T20:33:36.211Z,18.7
2022-08-20T20:38:44.350Z,18.71
2022-08-20T20:43:51.827Z,18.73
2022-08-20T20:48:59.292Z,18.68
2022-08-20T20:54:06.333Z,18.65
2022-08-20T20:59:14.482Z,18.64
2022-08-20T21:04:22.058Z,18.68
2022-08-20T21:09:35.387Z,18.64
2022-08-20T21:14:42.392Z,18.56
2022-08-20T21:19:49.277Z,18.58
2022-08-20T21:24:56.537Z,18.58
2022-08-20T21:30:04.742Z,18.58
2022-08-20T21:35:12.211Z,18.57
2022-08-20T21:40:20.022Z,18.56
2022-08-20T21:45:28.717Z,18.58
2022-08-20T21:50:36.764Z,18.58
2022-08-20T21:55:44.937Z,18.52
2022-08-20T22:00:52.098Z,18.48
2022-08-20T22:06:01.047Z,18.38
2022-08-20T22:11:08.369Z,18.36
2022-08-20T22:16:16.841Z,18.33
2022-08-20T22:21:24.293Z,18.28
2022-08-20T22:26:33.145Z,18.2
2022-08-20T22:31:40.393Z,18.04
2022-08-20T22:36:48.191Z,17.96
2022-08-20T22:41:56.207Z,17.86
2022-08-20T22:47:03.625Z,17.74
2022-08-20T22:52:11.976Z,17.59
2022-08-20T22:57:20.348Z,17.44
2022-08-20T23:02:28.984Z,17.17
2022-08-20T23:07:35.891Z,16.85
2022-08-20T23:12:43.113Z,16.64
2022-08-20T23:17:51.160Z,16.53
2022-08-20T23:22:59.193Z,16.51
2022-08-20T23:28:07.196Z,16.57
2022-08-20T23:33:14.024Z,16.61
2022-08-20T23:38:21.020Z,16.6
2022-08-20T23:43:28.878Z,16.64
2022-08-20T23:48:36.057Z,16.65
2022-08-20T23:53:43.594Z,16.72
2022-08-20T23:58:51.279Z,16.83
